Meteo Giornale » Osservazioni meteo Italia » Resia Pass

ore: 03:55 - Osservazioni Meteo Resia Pass
Lat. 46° 50' N Lon. 10° 30' E Alt. 1800 metri s.l.m.

molto_nuvoloso Europe/Rome

13 °C

Molto Nuvoloso

Temp. 24 Ore

12 °C

20 °C

Nord-Est

7.4 Km/h

Dew point 11 °C

Umidità 87 %

Visibilità  10 Km

Il sole sorge alle ore 05:47

Il sole tramonta alle ore 21:01

Data e Ora Cielo e Fenomeni T °C DP °C Um. % Pres. hPa Vis. km Vento km/h
Oggi h: 03:55 molto_nuvoloso Molto Nuvoloso 13 11 87 1018 10 NE 7.4
Oggi h: 02:55 molto_nuvoloso Molto Nuvoloso 12 11 93 1018 10 N 5.5
Oggi h: 01:55 molto_nuvoloso Molto Nuvoloso 14 12 87 1018 10 N 5.5
Oggi h: 00:55 molto_nuvoloso Molto Nuvoloso 14 -30 3 1018 10 N 5.5
Ieri h: 23:55 nuvoloso Nuvoloso 14 12 87 1018 10 N/NE 9.3
Ieri h: 22:55 nuvoloso Nuvoloso 15 13 87 1018 10 N 7.4
Ieri h: 21:55 nuvoloso Nuvoloso 16 13 82 1018 10 N/NE 9.3
Ieri h: 20:55 nuvoloso Nuvoloso 17 13 77 1017 10 N/NE 7.4
Ieri h: 19:55 nuvoloso Nuvoloso 18 12 67 1017 10 N 5.5
Ieri h: 17:55 nuvoloso Nuvoloso 20 13 64 1017 10 N 5.5
Ieri h: 16:55 nuvoloso Nuvoloso 19 13 68 1018 10 N 5.5
Ieri h: 15:55 nuvoloso Nuvoloso 18 14 77 1019 10 N 7.4
Ieri h: 14:55 molto_nuvoloso Molto Nuvoloso 19 11 59 1018 10 N 5.5
Ieri h: 13:55 molto_nuvoloso Molto Nuvoloso 19 10 55 1019 10 S 7.4
Ieri h: 12:55 nuvoloso Nuvoloso 20 10 52 1018 10 S/SO 9.3
Ieri h: 11:55 nuvoloso Nuvoloso 19 7 45 1020 10 S/SO 9.3
Ieri h: 10:55 poco_nuvoloso Poco Nuvoloso 16 11 72 1020 10 N 5.5
Ieri h: 09:55 sereno Sereno 15 11 76 1019 10 N/NE 7.4
Ieri h: 08:55 sereno Sereno 13 11 87 1020 10 N 7.4
Ieri h: 07:55 sereno Sereno 12 11 93 1020 10 N 7.4
Ieri h: 06:55 sereno Sereno 12 11 93 1020 10 N 5.5